sensor_id;sensor_type;location;lat;lon;timestamp;P1;durP1;ratioP1;P2;durP2;ratioP2
39540;SDS011;25219;52.244;21.006;2022-11-12T00:00:48;23.15;;;12.45;;
39540;SDS011;25219;52.244;21.006;2022-11-12T00:03:13;23.83;;;12.80;;
39540;SDS011;25219;52.244;21.006;2022-11-12T00:05:38;23.13;;;12.70;;
39540;SDS011;25219;52.244;21.006;2022-11-12T00:08:04;22.50;;;13.10;;
39540;SDS011;25219;52.244;21.006;2022-11-12T00:10:29;22.63;;;12.40;;
39540;SDS011;25219;52.244;21.006;2022-11-12T00:12:55;26.17;;;12.73;;
39540;SDS011;25219;52.244;21.006;2022-11-12T00:15:20;22.23;;;12.13;;
39540;SDS011;25219;52.244;21.006;2022-11-12T00:17:46;26.83;;;12.30;;
39540;SDS011;25219;52.244;21.006;2022-11-12T00:20:11;23.83;;;12.13;;
39540;SDS011;25219;52.244;21.006;2022-11-12T00:22:36;24.57;;;12.60;;
39540;SDS011;25219;52.244;21.006;2022-11-12T00:25:02;28.77;;;12.10;;
39540;SDS011;25219;52.244;21.006;2022-11-12T00:27:27;22.63;;;11.80;;
39540;SDS011;25219;52.244;21.006;2022-11-12T00:29:52;20.67;;;12.17;;
39540;SDS011;25219;52.244;21.006;2022-11-12T00:32:17;23.03;;;13.20;;
39540;SDS011;25219;52.244;21.006;2022-11-12T00:34:44;24.95;;;12.40;;
39540;SDS011;25219;52.244;21.006;2022-11-12T00:37:09;29.77;;;13.40;;
39540;SDS011;25219;52.244;21.006;2022-11-12T00:39:34;28.07;;;11.83;;
39540;SDS011;25219;52.244;21.006;2022-11-12T00:41:59;21.58;;;11.68;;
39540;SDS011;25219;52.244;21.006;2022-11-12T00:44:24;20.03;;;10.57;;
39540;SDS011;25219;52.244;21.006;2022-11-12T00:46:50;19.17;;;11.38;;
39540;SDS011;25219;52.244;21.006;2022-11-12T00:49:15;25.13;;;11.60;;
39540;SDS011;25219;52.244;21.006;2022-11-12T00:51:40;25.70;;;12.70;;
39540;SDS011;25219;52.244;21.006;2022-11-12T00:54:06;23.55;;;12.40;;
39540;SDS011;25219;52.244;21.006;2022-11-12T00:56:31;20.60;;;11.20;;
39540;SDS011;25219;52.244;21.006;2022-11-12T00:58:57;22.35;;;12.20;;
39540;SDS011;25219;52.244;21.006;2022-11-12T01:01:22;19.50;;;11.65;;
39540;SDS011;25219;52.244;21.006;2022-11-12T01:03:47;21.30;;;11.67;;
39540;SDS011;25219;52.244;21.006;2022-11-12T01:06:17;19.90;;;10.57;;
39540;SDS011;25219;52.244;21.006;2022-11-12T01:08:42;18.85;;;11.50;;
39540;SDS011;25219;52.244;21.006;2022-11-12T01:11:15;24.27;;;11.45;;
39540;SDS011;25219;52.244;21.006;2022-11-12T01:13:41;21.77;;;11.18;;
39540;SDS011;25219;52.244;21.006;2022-11-12T01:16:08;19.08;;;11.50;;
39540;SDS011;25219;52.244;21.006;2022-11-12T01:18:33;19.35;;;11.60;;
39540;SDS011;25219;52.244;21.006;2022-11-12T01:20:59;22.17;;;11.43;;
39540;SDS011;25219;52.244;21.006;2022-11-12T01:23:24;21.15;;;11.43;;
39540;SDS011;25219;52.244;21.006;2022-11-12T01:25:49;23.80;;;11.30;;
39540;SDS011;25219;52.244;21.006;2022-11-12T01:28:14;17.47;;;11.30;;
39540;SDS011;25219;52.244;21.006;2022-11-12T01:30:40;21.02;;;11.75;;
39540;SDS011;25219;52.244;21.006;2022-11-12T01:33:05;22.07;;;11.07;;
39540;SDS011;25219;52.244;21.006;2022-11-12T01:35:30;22.07;;;11.47;;
39540;SDS011;25219;52.244;21.006;2022-11-12T01:37:55;23.40;;;12.23;;
39540;SDS011;25219;52.244;21.006;2022-11-12T01:40:20;24.07;;;11.73;;
39540;SDS011;25219;52.244;21.006;2022-11-12T01:42:50;18.40;;;9.90;;
39540;SDS011;25219;52.244;21.006;2022-11-12T01:45:15;20.67;;;10.98;;
39540;SDS011;25219;52.244;21.006;2022-11-12T01:47:40;23.52;;;11.35;;
39540;SDS011;25219;52.244;21.006;2022-11-12T01:50:11;21.50;;;11.32;;
39540;SDS011;25219;52.244;21.006;2022-11-12T01:52:42;23.30;;;11.30;;
39540;SDS011;25219;52.244;21.006;2022-11-12T01:55:10;20.48;;;11.45;;
39540;SDS011;25219;52.244;21.006;2022-11-12T01:57:38;19.73;;;11.48;;
39540;SDS011;25219;52.244;21.006;2022-11-12T02:00:06;22.02;;;11.32;;
39540;SDS011;25219;52.244;21.006;2022-11-12T02:02:32;20.90;;;11.27;;
39540;SDS011;25219;52.244;21.006;2022-11-12T02:04:58;23.98;;;10.38;;
39540;SDS011;25219;52.244;21.006;2022-11-12T02:07:24;21.92;;;11.88;;
39540;SDS011;25219;52.244;21.006;2022-11-12T02:09:49;21.33;;;11.60;;
39540;SDS011;25219;52.244;21.006;2022-11-12T02:12:15;25.17;;;11.43;;
39540;SDS011;25219;52.244;21.006;2022-11-12T02:14:59;22.92;;;11.23;;
39540;SDS011;25219;52.244;21.006;2022-11-12T02:17:24;24.45;;;10.93;;
39540;SDS011;25219;52.244;21.006;2022-11-12T02:19:50;20.35;;;11.20;;
39540;SDS011;25219;52.244;21.006;2022-11-12T02:22:15;21.75;;;11.85;;
39540;SDS011;25219;52.244;21.006;2022-11-12T02:24:41;19.40;;;11.20;;
39540;SDS011;25219;52.244;21.006;2022-11-12T02:27:06;22.83;;;11.20;;
39540;SDS011;25219;52.244;21.006;2022-11-12T02:29:31;16.60;;;10.67;;
39540;SDS011;25219;52.244;21.006;2022-11-12T02:31:56;23.00;;;11.35;;
39540;SDS011;25219;52.244;21.006;2022-11-12T02:34:21;26.27;;;11.90;;
39540;SDS011;25219;52.244;21.006;2022-11-12T02:36:47;24.53;;;11.50;;
39540;SDS011;25219;52.244;21.006;2022-11-12T02:39:12;20.73;;;12.23;;
39540;SDS011;25219;52.244;21.006;2022-11-12T02:41:37;20.73;;;11.63;;
39540;SDS011;25219;52.244;21.006;2022-11-12T02:44:02;23.53;;;10.90;;
39540;SDS011;25219;52.244;21.006;2022-11-12T02:46:27;25.52;;;11.63;;
39540;SDS011;25219;52.244;21.006;2022-11-12T02:48:53;23.00;;;10.83;;
39540;SDS011;25219;52.244;21.006;2022-11-12T02:51:18;21.53;;;12.40;;
39540;SDS011;25219;52.244;21.006;2022-11-12T02:53:43;23.77;;;12.33;;
39540;SDS011;25219;52.244;21.006;2022-11-12T02:56:08;22.27;;;12.10;;
39540;SDS011;25219;52.244;21.006;2022-11-12T02:58:33;18.33;;;11.53;;
39540;SDS011;25219;52.244;21.006;2022-11-12T03:00:59;23.20;;;11.40;;
39540;SDS011;25219;52.244;21.006;2022-11-12T03:03:24;20.80;;;11.52;;
39540;SDS011;25219;52.244;21.006;2022-11-12T03:05:56;24.07;;;12.93;;
39540;SDS011;25219;52.244;21.006;2022-11-12T03:08:22;20.13;;;13.02;;
39540;SDS011;25219;52.244;21.006;2022-11-12T03:10:47;20.73;;;12.30;;
39540;SDS011;25219;52.244;21.006;2022-11-12T03:13:12;25.50;;;13.10;;
39540;SDS011;25219;52.244;21.006;2022-11-12T03:15:37;19.67;;;12.00;;
39540;SDS011;25219;52.244;21.006;2022-11-12T03:18:02;24.03;;;12.53;;
39540;SDS011;25219;52.244;21.006;2022-11-12T03:20:28;24.33;;;12.40;;
39540;SDS011;25219;52.244;21.006;2022-11-12T03:22:58;26.05;;;13.13;;
39540;SDS011;25219;52.244;21.006;2022-11-12T03:25:24;24.45;;;14.23;;
39540;SDS011;25219;52.244;21.006;2022-11-12T03:27:55;27.65;;;13.15;;
39540;SDS011;25219;52.244;21.006;2022-11-12T03:30:20;24.15;;;13.30;;
39540;SDS011;25219;52.244;21.006;2022-11-12T03:32:46;24.02;;;13.43;;
39540;SDS011;25219;52.244;21.006;2022-11-12T03:35:11;27.53;;;13.37;;
39540;SDS011;25219;52.244;21.006;2022-11-12T03:37:37;21.98;;;12.55;;
39540;SDS011;25219;52.244;21.006;2022-11-12T03:40:02;20.70;;;12.83;;
39540;SDS011;25219;52.244;21.006;2022-11-12T03:42:27;25.45;;;13.43;;
39540;SDS011;25219;52.244;21.006;2022-11-12T03:44:52;31.27;;;13.90;;
39540;SDS011;25219;52.244;21.006;2022-11-12T03:47:18;26.90;;;12.70;;
39540;SDS011;25219;52.244;21.006;2022-11-12T03:49:43;25.60;;;12.90;;
39540;SDS011;25219;52.244;21.006;2022-11-12T03:52:08;21.60;;;12.40;;
39540;SDS011;25219;52.244;21.006;2022-11-12T03:54:33;25.77;;;12.43;;
39540;SDS011;25219;52.244;21.006;2022-11-12T03:56:58;26.20;;;12.53;;
39540;SDS011;25219;52.244;21.006;2022-11-12T03:59:24;22.33;;;12.20;;
39540;SDS011;25219;52.244;21.006;2022-11-12T04:01:49;19.60;;;12.30;;
39540;SDS011;25219;52.244;21.006;2022-11-12T04:04:14;25.50;;;14.10;;
39540;SDS011;25219;52.244;21.006;2022-11-12T04:06:39;21.00;;;12.03;;
39540;SDS011;25219;52.244;21.006;2022-11-12T04:09:23;25.88;;;12.60;;
39540;SDS011;25219;52.244;21.006;2022-11-12T04:11:48;22.33;;;12.10;;
39540;SDS011;25219;52.244;21.006;2022-11-12T04:14:13;23.27;;;12.50;;
39540;SDS011;25219;52.244;21.006;2022-11-12T04:16:38;24.10;;;12.00;;
39540;SDS011;25219;52.244;21.006;2022-11-12T04:19:22;26.20;;;12.70;;
39540;SDS011;25219;52.244;21.006;2022-11-12T04:22:07;23.10;;;12.55;;
39540;SDS011;25219;52.244;21.006;2022-11-12T04:24:33;25.00;;;13.60;;
39540;SDS011;25219;52.244;21.006;2022-11-12T04:27:18;26.40;;;13.20;;
39540;SDS011;25219;52.244;21.006;2022-11-12T04:29:44;24.23;;;12.57;;
39540;SDS011;25219;52.244;21.006;2022-11-12T04:32:28;18.83;;;10.95;;
39540;SDS011;25219;52.244;21.006;2022-11-12T04:34:54;26.48;;;11.65;;
39540;SDS011;25219;52.244;21.006;2022-11-12T04:37:20;25.40;;;11.55;;
39540;SDS011;25219;52.244;21.006;2022-11-12T04:39:45;23.40;;;11.43;;
39540;SDS011;25219;52.244;21.006;2022-11-12T04:42:11;24.00;;;11.80;;
39540;SDS011;25219;52.244;21.006;2022-11-12T04:44:55;21.73;;;11.38;;
39540;SDS011;25219;52.244;21.006;2022-11-12T04:47:39;22.63;;;11.85;;
39540;SDS011;25219;52.244;21.006;2022-11-12T04:50:06;28.63;;;11.27;;
39540;SDS011;25219;52.244;21.006;2022-11-12T04:52:32;18.63;;;10.63;;
39540;SDS011;25219;52.244;21.006;2022-11-12T04:54:57;22.15;;;11.80;;
39540;SDS011;25219;52.244;21.006;2022-11-12T04:57:23;17.10;;;10.27;;
39540;SDS011;25219;52.244;21.006;2022-11-12T04:59:48;26.42;;;12.07;;
39540;SDS011;25219;52.244;21.006;2022-11-12T05:02:14;25.17;;;11.43;;
39540;SDS011;25219;52.244;21.006;2022-11-12T05:04:40;24.80;;;11.90;;
39540;SDS011;25219;52.244;21.006;2022-11-12T05:07:05;26.35;;;12.32;;
39540;SDS011;25219;52.244;21.006;2022-11-12T05:09:30;24.75;;;12.43;;
39540;SDS011;25219;52.244;21.006;2022-11-12T05:11:55;34.63;;;16.00;;
39540;SDS011;25219;52.244;21.006;2022-11-12T05:14:21;27.80;;;15.38;;
39540;SDS011;25219;52.244;21.006;2022-11-12T05:16:46;37.30;;;16.33;;
39540;SDS011;25219;52.244;21.006;2022-11-12T05:19:12;37.90;;;17.90;;
39540;SDS011;25219;52.244;21.006;2022-11-12T05:21:37;36.17;;;17.38;;
39540;SDS011;25219;52.244;21.006;2022-11-12T05:24:22;32.47;;;16.98;;
39540;SDS011;25219;52.244;21.006;2022-11-12T05:26:47;25.08;;;14.77;;
39540;SDS011;25219;52.244;21.006;2022-11-12T05:29:12;28.73;;;15.77;;
39540;SDS011;25219;52.244;21.006;2022-11-12T05:31:37;28.63;;;15.48;;
39540;SDS011;25219;52.244;21.006;2022-11-12T05:34:03;29.85;;;14.40;;
39540;SDS011;25219;52.244;21.006;2022-11-12T05:36:28;32.03;;;16.27;;
39540;SDS011;25219;52.244;21.006;2022-11-12T05:38:53;29.83;;;15.73;;
39540;SDS011;25219;52.244;21.006;2022-11-12T05:41:18;29.33;;;13.97;;
39540;SDS011;25219;52.244;21.006;2022-11-12T05:43:44;31.97;;;14.00;;
39540;SDS011;25219;52.244;21.006;2022-11-12T05:46:09;26.52;;;13.95;;
39540;SDS011;25219;52.244;21.006;2022-11-12T05:48:34;30.43;;;14.83;;
39540;SDS011;25219;52.244;21.006;2022-11-12T05:50:59;22.07;;;14.47;;
39540;SDS011;25219;52.244;21.006;2022-11-12T05:53:24;29.53;;;15.50;;
39540;SDS011;25219;52.244;21.006;2022-11-12T05:55:50;38.28;;;16.08;;
39540;SDS011;25219;52.244;21.006;2022-11-12T05:58:15;34.37;;;17.00;;
39540;SDS011;25219;52.244;21.006;2022-11-12T06:00:40;35.43;;;17.17;;
39540;SDS011;25219;52.244;21.006;2022-11-12T06:03:05;28.80;;;16.20;;
39540;SDS011;25219;52.244;21.006;2022-11-12T06:05:31;33.85;;;16.70;;
39540;SDS011;25219;52.244;21.006;2022-11-12T06:07:56;33.25;;;17.30;;
39540;SDS011;25219;52.244;21.006;2022-11-12T06:10:22;30.05;;;17.98;;
39540;SDS011;25219;52.244;21.006;2022-11-12T06:12:47;28.83;;;17.67;;
39540;SDS011;25219;52.244;21.006;2022-11-12T06:15:12;35.20;;;17.45;;
39540;SDS011;25219;52.244;21.006;2022-11-12T06:17:37;32.53;;;17.43;;
39540;SDS011;25219;52.244;21.006;2022-11-12T06:20:03;32.30;;;16.87;;
39540;SDS011;25219;52.244;21.006;2022-11-12T06:22:28;28.75;;;15.73;;
39540;SDS011;25219;52.244;21.006;2022-11-12T06:24:53;35.07;;;17.67;;
39540;SDS011;25219;52.244;21.006;2022-11-12T06:27:18;30.27;;;16.80;;
39540;SDS011;25219;52.244;21.006;2022-11-12T06:29:44;28.13;;;16.80;;
39540;SDS011;25219;52.244;21.006;2022-11-12T06:32:09;30.93;;;17.13;;
39540;SDS011;25219;52.244;21.006;2022-11-12T06:34:35;31.55;;;16.98;;
39540;SDS011;25219;52.244;21.006;2022-11-12T06:37:00;32.57;;;17.07;;
39540;SDS011;25219;52.244;21.006;2022-11-12T06:39:25;31.77;;;18.10;;
39540;SDS011;25219;52.244;21.006;2022-11-12T06:41:50;36.30;;;20.80;;
39540;SDS011;25219;52.244;21.006;2022-11-12T06:44:15;33.33;;;19.73;;
39540;SDS011;25219;52.244;21.006;2022-11-12T06:46:41;37.03;;;18.63;;
39540;SDS011;25219;52.244;21.006;2022-11-12T06:49:06;37.30;;;20.50;;
39540;SDS011;25219;52.244;21.006;2022-11-12T06:51:31;36.50;;;19.40;;
39540;SDS011;25219;52.244;21.006;2022-11-12T06:53:56;40.30;;;20.73;;
39540;SDS011;25219;52.244;21.006;2022-11-12T06:56:21;35.93;;;20.20;;
39540;SDS011;25219;52.244;21.006;2022-11-12T06:58:47;37.50;;;20.53;;
39540;SDS011;25219;52.244;21.006;2022-11-12T07:01:13;38.38;;;20.20;;
39540;SDS011;25219;52.244;21.006;2022-11-12T07:03:39;38.67;;;19.98;;
39540;SDS011;25219;52.244;21.006;2022-11-12T07:06:06;38.80;;;18.92;;
39540;SDS011;25219;52.244;21.006;2022-11-12T07:08:32;39.20;;;20.55;;
39540;SDS011;25219;52.244;21.006;2022-11-12T07:10:57;35.33;;;20.35;;
39540;SDS011;25219;52.244;21.006;2022-11-12T07:13:22;36.60;;;20.87;;
39540;SDS011;25219;52.244;21.006;2022-11-12T07:15:47;43.67;;;19.83;;
39540;SDS011;25219;52.244;21.006;2022-11-12T07:18:13;42.37;;;20.23;;
39540;SDS011;25219;52.244;21.006;2022-11-12T07:20:38;39.40;;;20.35;;
39540;SDS011;25219;52.244;21.006;2022-11-12T07:23:03;36.70;;;19.40;;
39540;SDS011;25219;52.244;21.006;2022-11-12T07:25:28;37.10;;;20.07;;
39540;SDS011;25219;52.244;21.006;2022-11-12T07:27:53;33.23;;;18.33;;
39540;SDS011;25219;52.244;21.006;2022-11-12T07:30:19;38.45;;;20.17;;
39540;SDS011;25219;52.244;21.006;2022-11-12T07:32:44;35.50;;;19.45;;
39540;SDS011;25219;52.244;21.006;2022-11-12T07:35:09;41.50;;;18.88;;
39540;SDS011;25219;52.244;21.006;2022-11-12T07:37:35;39.55;;;19.55;;
39540;SDS011;25219;52.244;21.006;2022-11-12T07:40:00;36.72;;;20.15;;
39540;SDS011;25219;52.244;21.006;2022-11-12T07:42:27;33.72;;;21.23;;
39540;SDS011;25219;52.244;21.006;2022-11-12T07:44:52;39.55;;;20.83;;
39540;SDS011;25219;52.244;21.006;2022-11-12T07:47:17;38.53;;;22.03;;
39540;SDS011;25219;52.244;21.006;2022-11-12T07:49:43;44.07;;;22.10;;
39540;SDS011;25219;52.244;21.006;2022-11-12T07:52:08;40.80;;;22.63;;
39540;SDS011;25219;52.244;21.006;2022-11-12T07:54:33;45.87;;;23.07;;
39540;SDS011;25219;52.244;21.006;2022-11-12T07:56:58;47.03;;;23.93;;
39540;SDS011;25219;52.244;21.006;2022-11-12T07:59:24;41.47;;;23.55;;
39540;SDS011;25219;52.244;21.006;2022-11-12T08:01:49;43.33;;;22.67;;
39540;SDS011;25219;52.244;21.006;2022-11-12T08:04:14;40.27;;;23.50;;
39540;SDS011;25219;52.244;21.006;2022-11-12T08:06:40;42.80;;;24.60;;
39540;SDS011;25219;52.244;21.006;2022-11-12T08:09:06;42.20;;;24.40;;
39540;SDS011;25219;52.244;21.006;2022-11-12T08:11:32;45.40;;;23.50;;
39540;SDS011;25219;52.244;21.006;2022-11-12T08:13:57;45.38;;;24.73;;
39540;SDS011;25219;52.244;21.006;2022-11-12T08:16:23;46.25;;;25.10;;
39540;SDS011;25219;52.244;21.006;2022-11-12T08:18:48;45.75;;;24.35;;
39540;SDS011;25219;52.244;21.006;2022-11-12T08:21:15;46.85;;;25.08;;
39540;SDS011;25219;52.244;21.006;2022-11-12T08:23:40;44.70;;;24.67;;
39540;SDS011;25219;52.244;21.006;2022-11-12T08:26:06;46.13;;;24.38;;
39540;SDS011;25219;52.244;21.006;2022-11-12T08:28:33;45.88;;;24.33;;
39540;SDS011;25219;52.244;21.006;2022-11-12T08:31:02;49.97;;;24.20;;
39540;SDS011;25219;52.244;21.006;2022-11-12T08:33:29;45.72;;;22.95;;
39540;SDS011;25219;52.244;21.006;2022-11-12T08:35:54;41.90;;;23.23;;
39540;SDS011;25219;52.244;21.006;2022-11-12T08:38:19;44.33;;;24.45;;
39540;SDS011;25219;52.244;21.006;2022-11-12T08:40:44;47.35;;;24.50;;
39540;SDS011;25219;52.244;21.006;2022-11-12T08:43:10;42.87;;;23.20;;
39540;SDS011;25219;52.244;21.006;2022-11-12T08:45:36;42.65;;;24.08;;
39540;SDS011;25219;52.244;21.006;2022-11-12T08:48:02;43.70;;;24.00;;
39540;SDS011;25219;52.244;21.006;2022-11-12T08:50:28;44.55;;;24.58;;
39540;SDS011;25219;52.244;21.006;2022-11-12T08:53:00;43.70;;;23.30;;
39540;SDS011;25219;52.244;21.006;2022-11-12T08:55:26;40.42;;;23.85;;
39540;SDS011;25219;52.244;21.006;2022-11-12T08:57:51;43.58;;;23.92;;
39540;SDS011;25219;52.244;21.006;2022-11-12T09:00:16;47.07;;;24.00;;
39540;SDS011;25219;52.244;21.006;2022-11-12T09:02:42;43.03;;;23.42;;
39540;SDS011;25219;52.244;21.006;2022-11-12T09:05:07;40.90;;;24.07;;
39540;SDS011;25219;52.244;21.006;2022-11-12T09:07:32;44.85;;;24.55;;
39540;SDS011;25219;52.244;21.006;2022-11-12T09:09:57;45.87;;;25.53;;
39540;SDS011;25219;52.244;21.006;2022-11-12T09:12:23;42.73;;;23.53;;
39540;SDS011;25219;52.244;21.006;2022-11-12T09:14:48;42.13;;;23.35;;
39540;SDS011;25219;52.244;21.006;2022-11-12T09:17:13;47.28;;;25.13;;
39540;SDS011;25219;52.244;21.006;2022-11-12T09:19:39;43.22;;;24.73;;
39540;SDS011;25219;52.244;21.006;2022-11-12T09:22:04;44.77;;;25.70;;
39540;SDS011;25219;52.244;21.006;2022-11-12T09:24:29;46.87;;;24.67;;
39540;SDS011;25219;52.244;21.006;2022-11-12T09:26:54;43.97;;;24.03;;
39540;SDS011;25219;52.244;21.006;2022-11-12T09:29:20;49.45;;;23.63;;
39540;SDS011;25219;52.244;21.006;2022-11-12T09:31:45;43.07;;;24.30;;
39540;SDS011;25219;52.244;21.006;2022-11-12T09:34:10;46.00;;;25.83;;
39540;SDS011;25219;52.244;21.006;2022-11-12T09:36:35;43.08;;;25.15;;
39540;SDS011;25219;52.244;21.006;2022-11-12T09:39:01;38.23;;;23.40;;
39540;SDS011;25219;52.244;21.006;2022-11-12T09:41:35;47.07;;;26.13;;
39540;SDS011;25219;52.244;21.006;2022-11-12T09:44:08;42.28;;;24.40;;
39540;SDS011;25219;52.244;21.006;2022-11-12T09:51:33;46.85;;;24.63;;
39540;SDS011;25219;52.244;21.006;2022-11-12T09:54:20;45.67;;;26.02;;
39540;SDS011;25219;52.244;21.006;2022-11-12T09:56:46;44.53;;;27.08;;
39540;SDS011;25219;52.244;21.006;2022-11-12T09:59:12;43.75;;;25.83;;
39540;SDS011;25219;52.244;21.006;2022-11-12T10:04:07;36.03;;;23.77;;
39540;SDS011;25219;52.244;21.006;2022-11-12T10:09:22;45.17;;;26.08;;
39540;SDS011;25219;52.244;21.006;2022-11-12T10:12:02;40.50;;;25.08;;
39540;SDS011;25219;52.244;21.006;2022-11-12T10:17:54;46.80;;;23.00;;
39540;SDS011;25219;52.244;21.006;2022-11-12T10:20:24;41.85;;;24.73;;
39540;SDS011;25219;52.244;21.006;2022-11-12T10:25:18;39.77;;;22.70;;
39540;SDS011;25219;52.244;21.006;2022-11-12T10:27:43;36.55;;;22.85;;
39540;SDS011;25219;52.244;21.006;2022-11-12T10:30:27;39.35;;;23.75;;
39540;SDS011;25219;52.244;21.006;2022-11-12T10:32:52;38.83;;;24.67;;
39540;SDS011;25219;52.244;21.006;2022-11-12T10:35:19;41.38;;;24.17;;
39540;SDS011;25219;52.244;21.006;2022-11-12T10:42:54;36.92;;;22.98;;
39540;SDS011;25219;52.244;21.006;2022-11-12T10:45:20;38.42;;;23.15;;
39540;SDS011;25219;52.244;21.006;2022-11-12T10:47:46;42.17;;;22.48;;
39540;SDS011;25219;52.244;21.006;2022-11-12T10:50:15;37.60;;;22.02;;
39540;SDS011;25219;52.244;21.006;2022-11-12T10:53:01;36.92;;;22.38;;
39540;SDS011;25219;52.244;21.006;2022-11-12T10:55:31;34.85;;;22.60;;
39540;SDS011;25219;52.244;21.006;2022-11-12T10:58:11;35.03;;;20.88;;
39540;SDS011;25219;52.244;21.006;2022-11-12T11:00:50;32.72;;;19.98;;
39540;SDS011;25219;52.244;21.006;2022-11-12T11:03:18;32.00;;;19.67;;
39540;SDS011;25219;52.244;21.006;2022-11-12T11:05:58;35.10;;;21.17;;
39540;SDS011;25219;52.244;21.006;2022-11-12T11:11:09;30.70;;;19.90;;
39540;SDS011;25219;52.244;21.006;2022-11-12T11:13:35;30.95;;;19.65;;
39540;SDS011;25219;52.244;21.006;2022-11-12T11:16:04;35.70;;;19.73;;
39540;SDS011;25219;52.244;21.006;2022-11-12T11:18:31;32.35;;;19.38;;
39540;SDS011;25219;52.244;21.006;2022-11-12T11:23:30;37.03;;;20.60;;
39540;SDS011;25219;52.244;21.006;2022-11-12T11:25:58;38.83;;;20.77;;
39540;SDS011;25219;52.244;21.006;2022-11-12T11:31:01;29.97;;;19.90;;
39540;SDS011;25219;52.244;21.006;2022-11-12T11:46:12;33.15;;;18.60;;
39540;SDS011;25219;52.244;21.006;2022-11-12T11:51:09;27.48;;;17.08;;
39540;SDS011;25219;52.244;21.006;2022-11-12T12:06:19;30.23;;;17.90;;
39540;SDS011;25219;52.244;21.006;2022-11-12T12:08:54;32.60;;;18.95;;
39540;SDS011;25219;52.244;21.006;2022-11-12T12:11:38;32.85;;;18.80;;
39540;SDS011;25219;52.244;21.006;2022-11-12T12:22:41;33.35;;;15.63;;
39540;SDS011;25219;52.244;21.006;2022-11-12T12:25:13;27.73;;;15.95;;
39540;SDS011;25219;52.244;21.006;2022-11-12T12:27:44;30.15;;;16.27;;
39540;SDS011;25219;52.244;21.006;2022-11-12T12:30:17;31.27;;;16.02;;
39540;SDS011;25219;52.244;21.006;2022-11-12T12:35:13;27.30;;;14.03;;
39540;SDS011;25219;52.244;21.006;2022-11-12T12:38:14;29.27;;;14.70;;
39540;SDS011;25219;52.244;21.006;2022-11-12T12:40:33;23.25;;;14.07;;
39540;SDS011;25219;52.244;21.006;2022-11-12T12:45:29;45.27;;;15.90;;
39540;SDS011;25219;52.244;21.006;2022-11-12T12:47:56;27.25;;;15.68;;
39540;SDS011;25219;52.244;21.006;2022-11-12T12:50:22;21.33;;;12.73;;
39540;SDS011;25219;52.244;21.006;2022-11-12T12:55:33;26.83;;;13.27;;
39540;SDS011;25219;52.244;21.006;2022-11-12T12:57:58;25.20;;;14.13;;
39540;SDS011;25219;52.244;21.006;2022-11-12T13:02:55;26.38;;;13.75;;
39540;SDS011;25219;52.244;21.006;2022-11-12T13:05:30;26.85;;;14.15;;
39540;SDS011;25219;52.244;21.006;2022-11-12T13:08:04;24.90;;;12.85;;
39540;SDS011;25219;52.244;21.006;2022-11-12T13:15:43;24.70;;;13.63;;
39540;SDS011;25219;52.244;21.006;2022-11-12T13:18:09;29.90;;;13.90;;
39540;SDS011;25219;52.244;21.006;2022-11-12T13:20:39;23.35;;;13.60;;
39540;SDS011;25219;52.244;21.006;2022-11-12T13:23:07;22.40;;;13.40;;
39540;SDS011;25219;52.244;21.006;2022-11-12T13:25:33;23.48;;;13.10;;
39540;SDS011;25219;52.244;21.006;2022-11-12T13:40:50;23.95;;;13.10;;
39540;SDS011;25219;52.244;21.006;2022-11-12T13:45:36;25.90;;;12.63;;
39540;SDS011;25219;52.244;21.006;2022-11-12T13:48:05;20.05;;;12.75;;
39540;SDS011;25219;52.244;21.006;2022-11-12T13:50:30;26.02;;;13.25;;
39540;SDS011;25219;52.244;21.006;2022-11-12T13:52:56;24.08;;;12.32;;
39540;SDS011;25219;52.244;21.006;2022-11-12T13:55:22;22.83;;;11.73;;
39540;SDS011;25219;52.244;21.006;2022-11-12T13:57:54;20.40;;;11.60;;
39540;SDS011;25219;52.244;21.006;2022-11-12T14:00:21;21.35;;;12.13;;
39540;SDS011;25219;52.244;21.006;2022-11-12T14:02:49;20.27;;;11.73;;
39540;SDS011;25219;52.244;21.006;2022-11-12T14:05:16;22.35;;;12.48;;
39540;SDS011;25219;52.244;21.006;2022-11-12T14:07:48;26.50;;;12.93;;
39540;SDS011;25219;52.244;21.006;2022-11-12T14:10:24;22.90;;;12.75;;
39540;SDS011;25219;52.244;21.006;2022-11-12T14:12:53;23.77;;;12.90;;
39540;SDS011;25219;52.244;21.006;2022-11-12T14:15:41;20.33;;;12.02;;
39540;SDS011;25219;52.244;21.006;2022-11-12T14:20:56;24.85;;;12.38;;
39540;SDS011;25219;52.244;21.006;2022-11-12T14:23:21;26.10;;;13.40;;
39540;SDS011;25219;52.244;21.006;2022-11-12T14:25:50;23.90;;;13.15;;
39540;SDS011;25219;52.244;21.006;2022-11-12T14:28:32;24.90;;;13.80;;
39540;SDS011;25219;52.244;21.006;2022-11-12T14:30:58;23.80;;;13.45;;
39540;SDS011;25219;52.244;21.006;2022-11-12T14:33:24;25.55;;;15.30;;
39540;SDS011;25219;52.244;21.006;2022-11-12T14:35:50;25.40;;;14.63;;
39540;SDS011;25219;52.244;21.006;2022-11-12T14:40:51;26.27;;;15.40;;
39540;SDS011;25219;52.244;21.006;2022-11-12T14:43:21;26.47;;;16.07;;
39540;SDS011;25219;52.244;21.006;2022-11-12T14:45:48;30.73;;;16.67;;
39540;SDS011;25219;52.244;21.006;2022-11-12T14:48:14;27.65;;;16.52;;
39540;SDS011;25219;52.244;21.006;2022-11-12T14:50:40;29.88;;;17.23;;
39540;SDS011;25219;52.244;21.006;2022-11-12T14:53:16;28.48;;;17.38;;
39540;SDS011;25219;52.244;21.006;2022-11-12T14:55:46;31.50;;;17.10;;
39540;SDS011;25219;52.244;21.006;2022-11-12T14:58:15;29.40;;;17.40;;
39540;SDS011;25219;52.244;21.006;2022-11-12T15:00:42;32.33;;;18.40;;
39540;SDS011;25219;52.244;21.006;2022-11-12T15:03:10;30.80;;;17.25;;
39540;SDS011;25219;52.244;21.006;2022-11-12T15:05:43;27.25;;;17.08;;
39540;SDS011;25219;52.244;21.006;2022-11-12T15:08:26;28.58;;;16.48;;
39540;SDS011;25219;52.244;21.006;2022-11-12T15:10:51;32.00;;;16.85;;
39540;SDS011;25219;52.244;21.006;2022-11-12T15:13:18;31.83;;;17.80;;
39540;SDS011;25219;52.244;21.006;2022-11-12T15:15:51;30.85;;;17.70;;
39540;SDS011;25219;52.244;21.006;2022-11-12T15:18:20;31.08;;;16.77;;
39540;SDS011;25219;52.244;21.006;2022-11-12T15:23:27;27.73;;;15.98;;
39540;SDS011;25219;52.244;21.006;2022-11-12T15:25:56;30.20;;;17.13;;
39540;SDS011;25219;52.244;21.006;2022-11-12T15:28:23;27.67;;;17.45;;
39540;SDS011;25219;52.244;21.006;2022-11-12T15:33:32;26.60;;;16.55;;
39540;SDS011;25219;52.244;21.006;2022-11-12T15:35:58;29.67;;;16.97;;
39540;SDS011;25219;52.244;21.006;2022-11-12T15:38:33;32.05;;;17.25;;
39540;SDS011;25219;52.244;21.006;2022-11-12T15:41:02;32.60;;;17.35;;
39540;SDS011;25219;52.244;21.006;2022-11-12T15:43:28;29.05;;;16.42;;
39540;SDS011;25219;52.244;21.006;2022-11-12T15:45:55;27.92;;;16.85;;
39540;SDS011;25219;52.244;21.006;2022-11-12T15:48:21;31.20;;;17.75;;
39540;SDS011;25219;52.244;21.006;2022-11-12T15:50:46;23.25;;;14.63;;
39540;SDS011;25219;52.244;21.006;2022-11-12T15:53:12;28.00;;;16.02;;
39540;SDS011;25219;52.244;21.006;2022-11-12T15:55:38;30.77;;;17.95;;